Liberty Center, OH

12:12 AM EST on March 03, 2015 (GMT -0500)
KOHNAPOL2 | Change Station
CLOSE
Current Station
Personal Weather Station
Location: Napoleon, OH
Elevation: 680 ft
Nearby Weather Stations
Active Advisory: Winter Weather Advisory

Elev 680 ft 41.42 °N, 84.12 °W | Updated 8 seconds ago

Overcast
Overcast
21.4 °F
Feels Like 14 °F
N
5.4
Wind Variable Wind from South
Gusts 7.0 mph

Today
High -- | Low -- °F
--% Chance of Precip.
Yesterday
High -- | Low -- °F
Precip. -- in
7:07 AM 6:28 PM
Waxing Gibbous, 94% visible
Pressure 30.39 in
Visibility 8.0 miles
Clouds Overcast 11000 ft
Windchill 14 °F
Dew Point 16 °F
Humidity 80%
Rainfall 0.00 in
Snow Depth Not available.
UV 0 out of 12
Pollen .40 out of 12
Air Quality Not available.
Flu Activity Not available.
METAR KTOL 030452Z 20005KT 8SM OVC110 M06/M11 A3036 RMK AO2 SLP291 T10611106 410221139

More Conditions Fewer Conditions

Pressure 30.39 in
Visibility 8.0 miles
Clouds Overcast 11000 ft
Windchill 14 °F
Dew Point 16 °F
Humidity 80%
Rainfall 0.00 in
Snow Depth Not available.
UV 0 out of 12
Pollen .40 out of 12
Air Quality Not available.
Flu Activity Not available.
METAR KTOL 030452Z 20005KT 8SM OVC110 M06/M11 A3036 RMK AO2 SLP291 T10611106 410221139

More Conditions Fewer Conditions

10-Day Weather Forecast

Almanac

Astronomy

Mar. 03, 2015 Rise Set
Actual Time
Civil Twilight
Nautical Twilight
Astronomical Twilight
Moon
Length of Visible Light
Length of Day
Tomorrow will be .
, % of the Moon is Illuminated

Today's Extremes

State Highs State Lows

Community

WunderPhotos

Upload Photos

1,802,066 photos uploaded!

WunderBlogs® & News

Nearby

Air Quality

  Air Quality AQ Index Pollutant
Not available.

Snow Depth

Station Depth Elevation

Earthquake Activity

City Distance Mag. Time & Date
Minimum magnitude displayed is 2.5.

Coastal Water Temperatures

Place Temperature

Nearby Weather Stations

Winter Weather Advisory
Statement as of 8:52 PM CST on March 02, 2015

... Winter Weather Advisory remains in effect from 6 am EST /5 am
CST/ to 1 PM EST /noon CST/ Tuesday...

Hazardous weather...

* freezing rain spreads from southwest /6 am EST/ to northeast
   /9 am EST/.

* The precipitation will start as a period of snow followed by
   sleet and freezing rain.

* Expect 1 to 2 hours of freezing rain before changing to all
   rain. Rain will overspread the area by or before 1 PM EST.

Impacts...

* sheltered roads... overpasses and intersections will be icy
   and dangerous.

* Sidewalks and driveways will be icy and dangerous.

* Morning commute will be affected.

Precautionary/preparedness actions...

A Winter Weather Advisory means that periods of snow... sleet... or
freezing rain will cause travel difficulties. Be prepared for
dangerous driving conditions and limited visibility... and use
extra caution while driving.